This is the latest recevied weather packets stored in our database for station/object HB9Y1. If no packets are shown the sender has not sent any weather packets the latest 10 day(s).
| Time | Temp. | Humidity | Pressure | Rain* | Wind** | Luminosity | Snow |
|---|---|---|---|---|---|---|---|
| 1777382602 | 8.89° C | 79% | 1014.5 hPa | 0 mm | - | 104 W/m² | - |
| 1777381425 | 8.89° C | 78% | 1014.5 hPa | 0 mm | - | 196 W/m² | - |
| 1777377821 | 11.67° C | 72% | 1013.7 hPa | 0 mm | - | 179 W/m² | - |
| 1777371281 | 11.67° C | 64% | 1014.5 hPa | 0 mm | - | 465 W/m² | - |
| 1777369469 | 11.11° C | 65% | 1014.5 hPa | 0 mm | - | 458 W/m² | - |
| 1777361661 | 10.56° C | 67% | 1014.5 hPa | 0 mm | - | 253 W/m² | - |
| 1777361069 | 10.56° C | 67% | 1014.5 hPa | 0 mm | - | 196 W/m² | - |
| 1777359261 | 10° C | 65% | 1014.5 hPa | 0 mm | - | 217 W/m² | - |
| 1777356901 | 7.22° C | 74% | 1014.8 hPa | 0 mm | - | 141 W/m² | - |
| 1777355677 | 7.22° C | 75% | 1014.9 hPa | 0 mm | - | 57 W/m² | - |
| 1777354461 | 6.67° C | 76% | 1014.5 hPa | 0 mm | - | 47 W/m² | - |
| 1777352061 | 6.11° C | 77% | 1014.8 hPa | 0 mm | - | 17 W/m² | - |
| 1777348501 | 6.67° C | 78% | 1014.9 hPa | 0 mm | - | 0 W/m² | - |
| 1777347889 | 6.67° C | 78% | 1014.5 hPa | 0 mm | - | 0 W/m² | - |
| 1777346057 | 6.67° C | 77% | 1014.9 hPa | 0 mm | - | 0 W/m² | - |
| 1777344861 | 6.67° C | 79% | 1015.3 hPa | 0 mm | - | 0 W/m² | - |
| 1777341868 | 6.67° C | 78% | 1015.4 hPa | 0 mm | - | 0 W/m² | - |
| 1777339465 | 7.22° C | 78% | 1015.7 hPa | 0 mm | - | 0 W/m² | - |
| 1777338860 | 7.22° C | 78% | 1015.7 hPa | 0 mm | - | 0 W/m² | - |
| 1777336457 | 7.22° C | 78% | 1016.1 hPa | 0 mm | - | 0 W/m² | - |
| 1777335260 | 7.22° C | 77% | 1016.2 hPa | 0 mm | - | 0 W/m² | - |
| 1777323868 | 8.33° C | 73% | 1016.5 hPa | 0 mm | - | 0 W/m² | - |
| 1777317868 | 8.33° C | 75% | 1016.9 hPa | 0 mm | - | 0 W/m² | - |
| 1777315465 | 8.89° C | 74% | 1016.9 hPa | 0 mm | - | 0 W/m² | - |
| 1777314880 | 9.44° C | 74% | 1016.9 hPa | 0 mm | - | 0 W/m² | - |
* Rain latest hour (hover to see other rain measurements)
** Current wind speed in m/s (hover to see current wind gust speed)